sensor_id;sensor_type;location;lat;lon;timestamp;P1;durP1;ratioP1;P2;durP2;ratioP2
85051;SDS011;75382;46.706;12.340;2024-01-11T00:00:02;9.5;;;3.125;;
85051;SDS011;75382;46.706;12.340;2024-01-11T00:01:03;14.225;;;4.175;;
85051;SDS011;75382;46.706;12.340;2024-01-11T00:02:03;10.1875;;;3.0375;;
85051;SDS011;75382;46.706;12.340;2024-01-11T00:03:02;9.75;;;2.9125;;
85051;SDS011;75382;46.706;12.340;2024-01-11T00:04:02;9.8625;;;3.1375;;
85051;SDS011;75382;46.706;12.340;2024-01-11T00:05:03;8.95;;;2.6000000000000005;;
85051;SDS011;75382;46.706;12.340;2024-01-11T00:06:04;9.05;;;3.225;;
85051;SDS011;75382;46.706;12.340;2024-01-11T00:07:02;9.1125;;;3.0375;;
85051;SDS011;75382;46.706;12.340;2024-01-11T00:08:04;11.037500000000001;;;3.7;;
85051;SDS011;75382;46.706;12.340;2024-01-11T00:09:02;9.6375;;;3.1625;;
85051;SDS011;75382;46.706;12.340;2024-01-11T00:10:03;11.625;;;3.3375;;
85051;SDS011;75382;46.706;12.340;2024-01-11T00:11:02;12.475;;;2.7625;;
85051;SDS011;75382;46.706;12.340;2024-01-11T00:12:02;13.2;;;3.6125;;
85051;SDS011;75382;46.706;12.340;2024-01-11T00:13:02;16.5;;;4.0;;
85051;SDS011;75382;46.706;12.340;2024-01-11T00:14:02;15.1375;;;5.075;;
85051;SDS011;75382;46.706;12.340;2024-01-11T00:15:02;20.15;;;5.1125;;
85051;SDS011;75382;46.706;12.340;2024-01-11T00:16:03;19.4375;;;4.574999999999999;;
85051;SDS011;75382;46.706;12.340;2024-01-11T00:17:02;18.55;;;4.925;;
85051;SDS011;75382;46.706;12.340;2024-01-11T00:18:03;18.1375;;;5.1;;
85051;SDS011;75382;46.706;12.340;2024-01-11T00:19:02;19.625;;;5.199999999999999;;
85051;SDS011;75382;46.706;12.340;2024-01-11T00:20:02;15.537500000000001;;;4.487500000000001;;
85051;SDS011;75382;46.706;12.340;2024-01-11T00:21:05;19.15;;;4.3125;;
85051;SDS011;75382;46.706;12.340;2024-01-11T00:22:03;14.625;;;3.6875;;
85051;SDS011;75382;46.706;12.340;2024-01-11T00:23:04;12.3625;;;3.9125;;
85051;SDS011;75382;46.706;12.340;2024-01-11T00:24:04;18.300000000000004;;;3.65;;
85051;SDS011;75382;46.706;12.340;2024-01-11T00:25:02;14.3625;;;4.25;;
85051;SDS011;75382;46.706;12.340;2024-01-11T00:26:02;14.3;;;4.300000000000001;;
85051;SDS011;75382;46.706;12.340;2024-01-11T00:27:02;12.7;;;3.5;;
85051;SDS011;75382;46.706;12.340;2024-01-11T00:28:02;12.287500000000001;;;3.9625;;
85051;SDS011;75382;46.706;12.340;2024-01-11T00:29:02;14.25;;;4.0875;;
85051;SDS011;75382;46.706;12.340;2024-01-11T00:30:03;11.737499999999999;;;3.375;;
85051;SDS011;75382;46.706;12.340;2024-01-11T00:31:02;15.362499999999999;;;4.1625000000000005;;
85051;SDS011;75382;46.706;12.340;2024-01-11T00:32:02;15.075;;;3.5875000000000004;;
85051;SDS011;75382;46.706;12.340;2024-01-11T00:33:04;9.975;;;3.1374999999999997;;
85051;SDS011;75382;46.706;12.340;2024-01-11T00:34:02;13.037500000000001;;;3.7874999999999996;;
85051;SDS011;75382;46.706;12.340;2024-01-11T00:35:02;12.075000000000001;;;3.575;;
85051;SDS011;75382;46.706;12.340;2024-01-11T00:36:02;10.737499999999999;;;3.25;;
85051;SDS011;75382;46.706;12.340;2024-01-11T00:37:02;14.0625;;;3.6624999999999996;;
85051;SDS011;75382;46.706;12.340;2024-01-11T00:38:05;14.225000000000001;;;3.275;;
85051;SDS011;75382;46.706;12.340;2024-01-11T00:39:05;16.7625;;;3.4625;;
85051;SDS011;75382;46.706;12.340;2024-01-11T00:40:02;14.587499999999999;;;3.2875;;
85051;SDS011;75382;46.706;12.340;2024-01-11T00:41:04;12.5;;;3.425;;
85051;SDS011;75382;46.706;12.340;2024-01-11T00:42:02;9.85;;;2.9125;;
85051;SDS011;75382;46.706;12.340;2024-01-11T00:43:02;12.6625;;;3.05;;
85051;SDS011;75382;46.706;12.340;2024-01-11T00:44:04;10.7375;;;3.0125;;
85051;SDS011;75382;46.706;12.340;2024-01-11T00:45:05;8.875;;;2.75;;
85051;SDS011;75382;46.706;12.340;2024-01-11T00:46:02;13.85;;;2.7874999999999996;;
85051;SDS011;75382;46.706;12.340;2024-01-11T00:47:05;12.45;;;3.175;;
85051;SDS011;75382;46.706;12.340;2024-01-11T00:48:03;8.85;;;2.6125000000000003;;
85051;SDS011;75382;46.706;12.340;2024-01-11T00:49:02;11.8875;;;3.225;;
85051;SDS011;75382;46.706;12.340;2024-01-11T00:50:02;11.325;;;3.1875;;
85051;SDS011;75382;46.706;12.340;2024-01-11T00:51:03;12.2625;;;2.9375;;
85051;SDS011;75382;46.706;12.340;2024-01-11T00:52:02;12.15;;;3.0875000000000004;;
85051;SDS011;75382;46.706;12.340;2024-01-11T00:53:03;12.35;;;3.2;;
85051;SDS011;75382;46.706;12.340;2024-01-11T00:54:02;11.3875;;;3.075;;
85051;SDS011;75382;46.706;12.340;2024-01-11T00:55:03;10.0875;;;3.2125;;
85051;SDS011;75382;46.706;12.340;2024-01-11T00:56:02;12.05;;;3.4375;;
85051;SDS011;75382;46.706;12.340;2024-01-11T00:57:04;15.2625;;;3.3125;;
85051;SDS011;75382;46.706;12.340;2024-01-11T00:58:05;11.587499999999999;;;3.375;;
85051;SDS011;75382;46.706;12.340;2024-01-11T00:59:03;10.375;;;3.3875;;
85051;SDS011;75382;46.706;12.340;2024-01-11T01:00:03;13.325;;;3.625;;
85051;SDS011;75382;46.706;12.340;2024-01-11T01:01:02;13.9375;;;3.4625;;
85051;SDS011;75382;46.706;12.340;2024-01-11T01:02:02;13.8125;;;3.4625;;
85051;SDS011;75382;46.706;12.340;2024-01-11T01:03:02;9.8625;;;3.275;;
85051;SDS011;75382;46.706;12.340;2024-01-11T01:04:02;13.5625;;;3.1500000000000004;;
85051;SDS011;75382;46.706;12.340;2024-01-11T01:05:02;10.6875;;;3.225;;
85051;SDS011;75382;46.706;12.340;2024-01-11T01:06:03;10.2625;;;2.6500000000000004;;
85051;SDS011;75382;46.706;12.340;2024-01-11T01:07:02;10.6125;;;3.1625;;
85051;SDS011;75382;46.706;12.340;2024-01-11T01:08:02;10.975000000000001;;;3.0500000000000003;;
85051;SDS011;75382;46.706;12.340;2024-01-11T01:09:03;10.15;;;2.375;;
85051;SDS011;75382;46.706;12.340;2024-01-11T01:10:05;10.5875;;;3.15;;
85051;SDS011;75382;46.706;12.340;2024-01-11T01:11:02;8.774999999999999;;;2.125;;
85051;SDS011;75382;46.706;12.340;2024-01-11T01:12:02;10.6375;;;2.675;;
85051;SDS011;75382;46.706;12.340;2024-01-11T01:13:04;8.55;;;2.1375;;
85051;SDS011;75382;46.706;12.340;2024-01-11T01:14:02;9.762500000000001;;;2.375;;
85051;SDS011;75382;46.706;12.340;2024-01-11T01:15:07;8.3625;;;2.125;;
85051;SDS011;75382;46.706;12.340;2024-01-11T01:16:02;8.600000000000001;;;2.2625;;
85051;SDS011;75382;46.706;12.340;2024-01-11T01:17:02;6.675000000000001;;;2.1625000000000005;;
85051;SDS011;75382;46.706;12.340;2024-01-11T01:18:02;6.725;;;2.0;;
85051;SDS011;75382;46.706;12.340;2024-01-11T01:19:02;8.1125;;;2.1375;;
85051;SDS011;75382;46.706;12.340;2024-01-11T01:20:02;6.800000000000001;;;1.9249999999999998;;
85051;SDS011;75382;46.706;12.340;2024-01-11T01:21:02;6.9375;;;2.3125;;
85051;SDS011;75382;46.706;12.340;2024-01-11T01:22:02;8.912500000000001;;;2.925;;
85051;SDS011;75382;46.706;12.340;2024-01-11T01:23:02;7.875;;;2.25;;
85051;SDS011;75382;46.706;12.340;2024-01-11T01:24:04;8.274999999999999;;;2.325;;
85051;SDS011;75382;46.706;12.340;2024-01-11T01:25:04;7.887499999999999;;;2.175;;
85051;SDS011;75382;46.706;12.340;2024-01-11T01:26:02;6.6;;;2.075;;
85051;SDS011;75382;46.706;12.340;2024-01-11T01:27:04;6.875;;;2.3375000000000004;;
85051;SDS011;75382;46.706;12.340;2024-01-11T01:28:02;6.575;;;1.6625;;
85051;SDS011;75382;46.706;12.340;2024-01-11T01:29:02;7.45;;;2.0375;;
85051;SDS011;75382;46.706;12.340;2024-01-11T01:30:02;7.175000000000001;;;1.85;;
85051;SDS011;75382;46.706;12.340;2024-01-11T01:31:02;6.0625;;;2.0250000000000004;;
85051;SDS011;75382;46.706;12.340;2024-01-11T01:32:02;7.525;;;2.7125000000000004;;
85051;SDS011;75382;46.706;12.340;2024-01-11T01:33:03;8.237499999999999;;;1.975;;
85051;SDS011;75382;46.706;12.340;2024-01-11T01:34:02;7.4125000000000005;;;2.3875;;
85051;SDS011;75382;46.706;12.340;2024-01-11T01:35:02;7.637499999999999;;;2.3375;;
85051;SDS011;75382;46.706;12.340;2024-01-11T01:36:07;6.7;;;2.05;;
85051;SDS011;75382;46.706;12.340;2024-01-11T01:37:02;7.512499999999999;;;2.275;;
85051;SDS011;75382;46.706;12.340;2024-01-11T01:38:03;8.075;;;2.5374999999999996;;
85051;SDS011;75382;46.706;12.340;2024-01-11T01:39:03;7.65;;;2.375;;
85051;SDS011;75382;46.706;12.340;2024-01-11T01:40:05;8.087499999999999;;;1.8625;;
85051;SDS011;75382;46.706;12.340;2024-01-11T01:41:02;8.912500000000001;;;1.8125;;
85051;SDS011;75382;46.706;12.340;2024-01-11T01:42:02;8.525;;;2.2625;;
85051;SDS011;75382;46.706;12.340;2024-01-11T01:43:06;6.324999999999999;;;2.1;;
85051;SDS011;75382;46.706;12.340;2024-01-11T01:44:03;8.9875;;;2.1875;;
85051;SDS011;75382;46.706;12.340;2024-01-11T01:45:03;7.637499999999999;;;2.1375;;
85051;SDS011;75382;46.706;12.340;2024-01-11T01:46:07;6.175;;;1.7999999999999998;;
85051;SDS011;75382;46.706;12.340;2024-01-11T01:47:05;8.5125;;;1.825;;
85051;SDS011;75382;46.706;12.340;2024-01-11T01:48:02;9.4375;;;2.8;;
85051;SDS011;75382;46.706;12.340;2024-01-11T01:49:05;7.85;;;2.3375000000000004;;
85051;SDS011;75382;46.706;12.340;2024-01-11T01:50:02;8.7625;;;2.95;;
85051;SDS011;75382;46.706;12.340;2024-01-11T01:51:05;9.100000000000001;;;2.075;;
85051;SDS011;75382;46.706;12.340;2024-01-11T01:52:05;10.225;;;2.95;;
85051;SDS011;75382;46.706;12.340;2024-01-11T01:53:02;8.45;;;2.0999999999999996;;
85051;SDS011;75382;46.706;12.340;2024-01-11T01:54:02;6.699999999999999;;;2.2249999999999996;;
85051;SDS011;75382;46.706;12.340;2024-01-11T01:55:02;8.0;;;2.1;;
85051;SDS011;75382;46.706;12.340;2024-01-11T01:56:02;7.925000000000001;;;2.4749999999999996;;
85051;SDS011;75382;46.706;12.340;2024-01-11T01:57:05;7.125;;;2.275;;
85051;SDS011;75382;46.706;12.340;2024-01-11T01:58:08;9.1125;;;2.075;;
85051;SDS011;75382;46.706;12.340;2024-01-11T01:59:02;6.65;;;1.8499999999999999;;
85051;SDS011;75382;46.706;12.340;2024-01-11T02:00:03;7.1;;;1.9749999999999999;;
85051;SDS011;75382;46.706;12.340;2024-01-11T02:01:02;6.4875;;;2.0625;;
85051;SDS011;75382;46.706;12.340;2024-01-11T02:02:02;6.825;;;1.9249999999999998;;
85051;SDS011;75382;46.706;12.340;2024-01-11T02:03:04;7.887499999999999;;;2.1375;;
85051;SDS011;75382;46.706;12.340;2024-01-11T02:04:02;8.1;;;2.3;;
85051;SDS011;75382;46.706;12.340;2024-01-11T02:05:02;7.949999999999999;;;1.9125;;
85051;SDS011;75382;46.706;12.340;2024-01-11T02:06:05;7.737500000000001;;;2.1375;;
85051;SDS011;75382;46.706;12.340;2024-01-11T02:07:02;8.15;;;1.9124999999999999;;
85051;SDS011;75382;46.706;12.340;2024-01-11T02:08:05;6.9125;;;2.0125;;
85051;SDS011;75382;46.706;12.340;2024-01-11T02:09:03;6.199999999999999;;;2.1;;
85051;SDS011;75382;46.706;12.340;2024-01-11T02:10:02;7.275;;;2.025;;
85051;SDS011;75382;46.706;12.340;2024-01-11T02:11:02;9.1375;;;1.8875;;
85051;SDS011;75382;46.706;12.340;2024-01-11T02:12:05;5.699999999999999;;;1.8250000000000002;;
85051;SDS011;75382;46.706;12.340;2024-01-11T02:13:05;5.925000000000001;;;1.625;;
85051;SDS011;75382;46.706;12.340;2024-01-11T02:14:02;5.887499999999999;;;1.7999999999999998;;
85051;SDS011;75382;46.706;12.340;2024-01-11T02:15:05;6.825;;;1.7874999999999999;;
85051;SDS011;75382;46.706;12.340;2024-01-11T02:16:02;8.0125;;;1.875;;
85051;SDS011;75382;46.706;12.340;2024-01-11T02:17:04;10.975;;;2.1125;;
85051;SDS011;75382;46.706;12.340;2024-01-11T02:18:02;8.1375;;;2.2125000000000004;;
85051;SDS011;75382;46.706;12.340;2024-01-11T02:19:04;7.8625;;;2.55;;
85051;SDS011;75382;46.706;12.340;2024-01-11T02:20:04;6.3625;;;1.7625000000000002;;
85051;SDS011;75382;46.706;12.340;2024-01-11T02:21:02;7.1125;;;2.0;;
85051;SDS011;75382;46.706;12.340;2024-01-11T02:22:05;6.0375;;;1.85;;
85051;SDS011;75382;46.706;12.340;2024-01-11T02:23:04;7.574999999999999;;;2.075;;
85051;SDS011;75382;46.706;12.340;2024-01-11T02:24:03;6.5625;;;2.0250000000000004;;
85051;SDS011;75382;46.706;12.340;2024-01-11T02:25:05;7.6125;;;1.7;;
85051;SDS011;75382;46.706;12.340;2024-01-11T02:26:02;7.2625;;;2.1;;
85051;SDS011;75382;46.706;12.340;2024-01-11T02:27:03;6.5;;;2.175;;
85051;SDS011;75382;46.706;12.340;2024-01-11T02:28:02;8.649999999999999;;;2.2125;;
85051;SDS011;75382;46.706;12.340;2024-01-11T02:29:02;8.1375;;;2.125;;
85051;SDS011;75382;46.706;12.340;2024-01-11T02:30:02;9.524999999999999;;;2.1125;;
85051;SDS011;75382;46.706;12.340;2024-01-11T02:31:04;5.9625;;;1.9;;
85051;SDS011;75382;46.706;12.340;2024-01-11T02:32:02;6.574999999999999;;;1.8250000000000002;;
85051;SDS011;75382;46.706;12.340;2024-01-11T02:33:02;6.6875;;;1.9375;;
85051;SDS011;75382;46.706;12.340;2024-01-11T02:34:05;6.5375;;;1.9249999999999998;;
85051;SDS011;75382;46.706;12.340;2024-01-11T02:35:02;6.475;;;1.7625000000000002;;
85051;SDS011;75382;46.706;12.340;2024-01-11T02:36:02;10.5625;;;2.1125;;
85051;SDS011;75382;46.706;12.340;2024-01-11T02:37:02;6.8;;;2.0625;;
85051;SDS011;75382;46.706;12.340;2024-01-11T02:38:03;8.287500000000001;;;1.7875;;
85051;SDS011;75382;46.706;12.340;2024-01-11T02:39:02;7.300000000000001;;;1.925;;
85051;SDS011;75382;46.706;12.340;2024-01-11T02:40:03;7.487500000000001;;;1.725;;
85051;SDS011;75382;46.706;12.340;2024-01-11T02:41:02;7.1;;;1.75;;
85051;SDS011;75382;46.706;12.340;2024-01-11T02:42:03;5.8375;;;1.2999999999999998;;
85051;SDS011;75382;46.706;12.340;2024-01-11T02:43:07;7.0125;;;2.0625;;
85051;SDS011;75382;46.706;12.340;2024-01-11T02:44:02;6.9;;;2.475;;
85051;SDS011;75382;46.706;12.340;2024-01-11T02:45:05;7.35;;;1.9625;;
85051;SDS011;75382;46.706;12.340;2024-01-11T02:46:02;12.1625;;;3.0875;;
85051;SDS011;75382;46.706;12.340;2024-01-11T02:47:05;11.725;;;3.5125;;
85051;SDS011;75382;46.706;12.340;2024-01-11T02:48:02;8.5125;;;2.375;;
85051;SDS011;75382;46.706;12.340;2024-01-11T02:49:02;7.5375;;;2.0250000000000004;;
85051;SDS011;75382;46.706;12.340;2024-01-11T02:50:05;7.625;;;2.0125;;
85051;SDS011;75382;46.706;12.340;2024-01-11T02:51:04;7.2875;;;1.6875;;
85051;SDS011;75382;46.706;12.340;2024-01-11T02:52:05;6.862500000000001;;;1.9500000000000002;;
85051;SDS011;75382;46.706;12.340;2024-01-11T02:53:03;7.875;;;2.0625;;
85051;SDS011;75382;46.706;12.340;2024-01-11T02:54:03;6.75;;;1.975;;
85051;SDS011;75382;46.706;12.340;2024-01-11T02:55:02;7.5;;;2.3375;;
85051;SDS011;75382;46.706;12.340;2024-01-11T02:56:02;7.225;;;1.8125;;
85051;SDS011;75382;46.706;12.340;2024-01-11T02:57:02;6.275;;;1.7125;;
85051;SDS011;75382;46.706;12.340;2024-01-11T02:58:03;6.4375;;;1.6749999999999998;;
85051;SDS011;75382;46.706;12.340;2024-01-11T02:59:05;5.525;;;1.5374999999999999;;
85051;SDS011;75382;46.706;12.340;2024-01-11T03:00:03;7.0375;;;1.575;;
85051;SDS011;75382;46.706;12.340;2024-01-11T03:01:04;7.05;;;1.9375;;
85051;SDS011;75382;46.706;12.340;2024-01-11T03:02:02;7.750000000000001;;;2.3625;;
85051;SDS011;75382;46.706;12.340;2024-01-11T03:03:05;7.449999999999999;;;2.5625;;
85051;SDS011;75382;46.706;12.340;2024-01-11T03:04:02;6.699999999999999;;;2.2125000000000004;;
85051;SDS011;75382;46.706;12.340;2024-01-11T03:05:03;9.212499999999999;;;3.1750000000000003;;
85051;SDS011;75382;46.706;12.340;2024-01-11T03:06:02;6.6;;;2.45;;
85051;SDS011;75382;46.706;12.340;2024-01-11T03:07:02;6.225;;;2.1;;
85051;SDS011;75382;46.706;12.340;2024-01-11T03:08:04;7.3125;;;1.775;;
85051;SDS011;75382;46.706;12.340;2024-01-11T03:09:02;7.1125;;;2.5125;;
85051;SDS011;75382;46.706;12.340;2024-01-11T03:10:02;7.525;;;2.35;;
85051;SDS011;75382;46.706;12.340;2024-01-11T03:11:02;9.775;;;3.4;;
85051;SDS011;75382;46.706;12.340;2024-01-11T03:12:02;8.9;;;3.1500000000000004;;
85051;SDS011;75382;46.706;12.340;2024-01-11T03:13:02;7.925;;;2.0875000000000004;;
85051;SDS011;75382;46.706;12.340;2024-01-11T03:14:03;7.225;;;2.3499999999999996;;
85051;SDS011;75382;46.706;12.340;2024-01-11T03:15:03;7.5;;;2.55;;
85051;SDS011;75382;46.706;12.340;2024-01-11T03:16:02;9.2;;;2.9;;
85051;SDS011;75382;46.706;12.340;2024-01-11T03:17:05;8.2125;;;2.95;;
85051;SDS011;75382;46.706;12.340;2024-01-11T03:18:02;7.825;;;3.2;;
85051;SDS011;75382;46.706;12.340;2024-01-11T03:19:02;15.625;;;7.525;;
85051;SDS011;75382;46.706;12.340;2024-01-11T03:20:07;13.662500000000001;;;5.3875;;
85051;SDS011;75382;46.706;12.340;2024-01-11T03:21:02;8.0625;;;3.1375;;
85051;SDS011;75382;46.706;12.340;2024-01-11T03:22:07;8.475000000000001;;;2.425;;
85051;SDS011;75382;46.706;12.340;2024-01-11T03:23:02;6.85;;;1.8625;;
85051;SDS011;75382;46.706;12.340;2024-01-11T03:24:02;7.4625;;;1.925;;
85051;SDS011;75382;46.706;12.340;2024-01-11T03:25:10;8.8875;;;2.8375;;
85051;SDS011;75382;46.706;12.340;2024-01-11T03:26:02;8.4875;;;2.425;;
85051;SDS011;75382;46.706;12.340;2024-01-11T03:27:02;6.4125;;;1.7625000000000002;;
85051;SDS011;75382;46.706;12.340;2024-01-11T03:28:05;5.8375;;;1.525;;
85051;SDS011;75382;46.706;12.340;2024-01-11T03:29:02;6.075;;;1.4875;;
85051;SDS011;75382;46.706;12.340;2024-01-11T03:30:02;6.55;;;1.5625;;
85051;SDS011;75382;46.706;12.340;2024-01-11T03:31:02;6.3875;;;1.7999999999999998;;
85051;SDS011;75382;46.706;12.340;2024-01-11T03:32:05;6.225;;;1.825;;
85051;SDS011;75382;46.706;12.340;2024-01-11T03:33:02;6.525;;;1.75;;
85051;SDS011;75382;46.706;12.340;2024-01-11T03:34:02;6.75;;;2.0125;;
85051;SDS011;75382;46.706;12.340;2024-01-11T03:35:02;8.625;;;2.425;;
85051;SDS011;75382;46.706;12.340;2024-01-11T03:36:06;13.625;;;5.5625;;
85051;SDS011;75382;46.706;12.340;2024-01-11T03:37:02;9.05;;;3.3125;;
85051;SDS011;75382;46.706;12.340;2024-01-11T03:38:02;7.862500000000001;;;2.9000000000000004;;
85051;SDS011;75382;46.706;12.340;2024-01-11T03:39:02;7.4624999999999995;;;1.6500000000000001;;
85051;SDS011;75382;46.706;12.340;2024-01-11T03:40:02;6.3999999999999995;;;1.4249999999999998;;
85051;SDS011;75382;46.706;12.340;2024-01-11T03:41:07;5.5875;;;1.0250000000000001;;
85051;SDS011;75382;46.706;12.340;2024-01-11T03:42:05;6.0875;;;1.25;;
85051;SDS011;75382;46.706;12.340;2024-01-11T03:43:02;6.5125;;;1.5875;;
85051;SDS011;75382;46.706;12.340;2024-01-11T03:44:05;5.8875;;;1.4125;;
85051;SDS011;75382;46.706;12.340;2024-01-11T03:45:05;4.8375;;;1.2625;;
85051;SDS011;75382;46.706;12.340;2024-01-11T03:46:02;5.4625;;;1.4375;;
85051;SDS011;75382;46.706;12.340;2024-01-11T03:47:02;5.4125;;;1.4625;;
85051;SDS011;75382;46.706;12.340;2024-01-11T03:48:02;6.1875;;;1.5625;;
85051;SDS011;75382;46.706;12.340;2024-01-11T03:49:02;5.8625;;;1.5625;;
85051;SDS011;75382;46.706;12.340;2024-01-11T03:50:03;6.025;;;1.575;;
85051;SDS011;75382;46.706;12.340;2024-01-11T03:51:03;7.4;;;1.5375;;
85051;SDS011;75382;46.706;12.340;2024-01-11T03:52:02;5.8875;;;1.7125;;
85051;SDS011;75382;46.706;12.340;2024-01-11T03:53:03;7.0375;;;1.7625;;
85051;SDS011;75382;46.706;12.340;2024-01-11T03:54:05;8.3125;;;1.95;;
85051;SDS011;75382;46.706;12.340;2024-01-11T03:55:02;7.8125;;;2.1624999999999996;;
85051;SDS011;75382;46.706;12.340;2024-01-11T03:56:02;10.075;;;3.4375;;
85051;SDS011;75382;46.706;12.340;2024-01-11T03:57:07;7.799999999999999;;;2.5;;
85051;SDS011;75382;46.706;12.340;2024-01-11T03:58:04;13.0875;;;2.1;;
85051;SDS011;75382;46.706;12.340;2024-01-11T03:59:02;9.799999999999999;;;2.6375;;
85051;SDS011;75382;46.706;12.340;2024-01-11T04:00:02;7.050000000000001;;;2.1375;;
85051;SDS011;75382;46.706;12.340;2024-01-11T04:01:02;5.75;;;1.6125;;
85051;SDS011;75382;46.706;12.340;2024-01-11T04:02:02;8.2875;;;1.7125;;
85051;SDS011;75382;46.706;12.340;2024-01-11T04:03:06;6.225;;;1.6749999999999998;;
85051;SDS011;75382;46.706;12.340;2024-01-11T04:04:05;7.05;;;2.0875000000000004;;
85051;SDS011;75382;46.706;12.340;2024-01-11T04:05:02;6.85;;;2.0875000000000004;;
85051;SDS011;75382;46.706;12.340;2024-01-11T04:06:07;5.887499999999999;;;2.0;;
85051;SDS011;75382;46.706;12.340;2024-01-11T04:07:02;7.275;;;2.5374999999999996;;
85051;SDS011;75382;46.706;12.340;2024-01-11T04:08:03;7.5875;;;2.5;;
85051;SDS011;75382;46.706;12.340;2024-01-11T04:09:03;9.8875;;;2.55;;
85051;SDS011;75382;46.706;12.340;2024-01-11T04:10:02;12.0;;;2.95;;
85051;SDS011;75382;46.706;12.340;2024-01-11T04:11:03;10.625;;;3.6875;;
85051;SDS011;75382;46.706;12.340;2024-01-11T04:12:04;14.112499999999999;;;4.1625;;
85051;SDS011;75382;46.706;12.340;2024-01-11T04:13:02;9.025;;;3.5625;;
85051;SDS011;75382;46.706;12.340;2024-01-11T04:14:04;7.25;;;2.3;;
85051;SDS011;75382;46.706;12.340;2024-01-11T04:15:02;7.3374999999999995;;;2.7875;;
85051;SDS011;75382;46.706;12.340;2024-01-11T04:16:05;9.275;;;2.2625;;
85051;SDS011;75382;46.706;12.340;2024-01-11T04:17:02;7.6625;;;1.9125;;
85051;SDS011;75382;46.706;12.340;2024-01-11T04:18:07;6.35;;;1.875;;
85051;SDS011;75382;46.706;12.340;2024-01-11T04:19:04;8.225;;;2.075;;
85051;SDS011;75382;46.706;12.340;2024-01-11T04:20:06;7.775;;;2.1125;;
85051;SDS011;75382;46.706;12.340;2024-01-11T04:21:05;9.649999999999999;;;2.375;;
85051;SDS011;75382;46.706;12.340;2024-01-11T04:22:03;7.025;;;2.25;;
85051;SDS011;75382;46.706;12.340;2024-01-11T04:23:05;8.4125;;;2.1624999999999996;;
85051;SDS011;75382;46.706;12.340;2024-01-11T04:24:02;10.35;;;2.2875;;
85051;SDS011;75382;46.706;12.340;2024-01-11T04:25:02;6.9625;;;2.3125;;
85051;SDS011;75382;46.706;12.340;2024-01-11T04:26:02;7.637499999999999;;;1.9625;;
85051;SDS011;75382;46.706;12.340;2024-01-11T04:27:02;8.9625;;;2.55;;
85051;SDS011;75382;46.706;12.340;2024-01-11T04:28:04;11.65;;;2.55;;
85051;SDS011;75382;46.706;12.340;2024-01-11T04:29:02;7.2;;;2.425;;
85051;SDS011;75382;46.706;12.340;2024-01-11T04:30:02;8.45;;;2.4125;;
85051;SDS011;75382;46.706;12.340;2024-01-11T04:31:07;6.1625;;;2.0500000000000003;;
85051;SDS011;75382;46.706;12.340;2024-01-11T04:32:02;8.662500000000001;;;2.8499999999999996;;
85051;SDS011;75382;46.706;12.340;2024-01-11T04:33:02;8.299999999999999;;;2.575;;
85051;SDS011;75382;46.706;12.340;2024-01-11T04:34:02;7.3125;;;2.5125;;
85051;SDS011;75382;46.706;12.340;2024-01-11T04:35:02;9.3125;;;2.4625000000000004;;
85051;SDS011;75382;46.706;12.340;2024-01-11T04:36:05;6.637499999999999;;;2.2375;;
85051;SDS011;75382;46.706;12.340;2024-01-11T04:37:02;9.75;;;2.0;;
85051;SDS011;75382;46.706;12.340;2024-01-11T04:38:02;10.8125;;;3.225;;
85051;SDS011;75382;46.706;12.340;2024-01-11T04:39:05;9.55;;;2.95;;
85051;SDS011;75382;46.706;12.340;2024-01-11T04:40:06;9.875;;;3.0875000000000004;;
85051;SDS011;75382;46.706;12.340;2024-01-11T04:41:02;7.237500000000001;;;2.4875;;
85051;SDS011;75382;46.706;12.340;2024-01-11T04:42:03;9.0625;;;2.2875;;
85051;SDS011;75382;46.706;12.340;2024-01-11T04:43:02;9.65;;;3.1125;;
85051;SDS011;75382;46.706;12.340;2024-01-11T04:44:02;9.5875;;;2.9625;;
85051;SDS011;75382;46.706;12.340;2024-01-11T04:45:02;12.75;;;4.7125;;
85051;SDS011;75382;46.706;12.340;2024-01-11T04:46:02;21.1;;;9.662500000000001;;
85051;SDS011;75382;46.706;12.340;2024-01-11T04:47:02;18.799999999999997;;;8.399999999999999;;
85051;SDS011;75382;46.706;12.340;2024-01-11T04:48:05;15.9625;;;6.887499999999999;;
85051;SDS011;75382;46.706;12.340;2024-01-11T04:49:02;17.925;;;8.8625;;
85051;SDS011;75382;46.706;12.340;2024-01-11T04:50:05;18.5;;;8.337499999999999;;
85051;SDS011;75382;46.706;12.340;2024-01-11T04:51:02;17.4375;;;7.325;;
85051;SDS011;75382;46.706;12.340;2024-01-11T04:52:02;14.6;;;6.075;;
85051;SDS011;75382;46.706;12.340;2024-01-11T04:53:02;13.637500000000001;;;6.300000000000001;;
85051;SDS011;75382;46.706;12.340;2024-01-11T04:54:02;12.1625;;;5.5375;;
85051;SDS011;75382;46.706;12.340;2024-01-11T04:55:02;12.6375;;;4.65;;
85051;SDS011;75382;46.706;12.340;2024-01-11T04:56:02;9.100000000000001;;;3.5125;;
85051;SDS011;75382;46.706;12.340;2024-01-11T04:57:05;8.325;;;3.2;;
85051;SDS011;75382;46.706;12.340;2024-01-11T04:58:04;9.95;;;3.4625;;
85051;SDS011;75382;46.706;12.340;2024-01-11T04:59:02;12.5375;;;3.7249999999999996;;
85051;SDS011;75382;46.706;12.340;2024-01-11T05:00:06;8.875;;;3.3;;
85051;SDS011;75382;46.706;12.340;2024-01-11T05:01:02;10.0;;;3.0999999999999996;;
85051;SDS011;75382;46.706;12.340;2024-01-11T05:01:26;9.337499999999999;;;3.8625;;
85051;SDS011;75382;46.706;12.340;2024-01-11T05:02:26;8.5;;;3.2;;
85051;SDS011;75382;46.706;12.340;2024-01-11T05:03:27;9.2625;;;3.2125000000000004;;
85051;SDS011;75382;46.706;12.340;2024-01-11T05:04:31;9.3125;;;4.0875;;
85051;SDS011;75382;46.706;12.340;2024-01-11T05:05:27;10.4875;;;4.3125;;
85051;SDS011;75382;46.706;12.340;2024-01-11T05:06:27;11.75;;;4.0;;
85051;SDS011;75382;46.706;12.340;2024-01-11T05:07:27;9.987499999999999;;;4.025;;
85051;SDS011;75382;46.706;12.340;2024-01-11T05:08:27;8.587500000000002;;;3.4875;;
85051;SDS011;75382;46.706;12.340;2024-01-11T05:09:27;8.3125;;;3.2375;;
85051;SDS011;75382;46.706;12.340;2024-01-11T05:10:27;8.2375;;;3.2874999999999996;;
85051;SDS011;75382;46.706;12.340;2024-01-11T05:11:26;10.775;;;2.8874999999999997;;
85051;SDS011;75382;46.706;12.340;2024-01-11T05:12:27;9.5625;;;3.55;;
85051;SDS011;75382;46.706;12.340;2024-01-11T05:13:26;7.0625;;;2.6125;;
85051;SDS011;75382;46.706;12.340;2024-01-11T05:14:32;7.675000000000001;;;2.3249999999999997;;
85051;SDS011;75382;46.706;12.340;2024-01-11T05:15:26;10.3625;;;3.3;;